Pagrindinis puslapis
METAR-TAF:

METAR-TAF

Oro uostai :

Ainas, Jungtiniai Arabų Emyratai

platuma: 24-16N, ilguma: 055-36E, Aukštis: 265 m

Dabartinis oras

Ataskaita buvo paskelbta 32 minutes, ne 05:00 UTC
Vėjas 8 kt iš Pietų/Pietryčių
Temperatūra 36°C
Drėgmė 25%
Slėgis 1006 hPa
Matomumas 10 km arba daugiau
nėra debesų žemiau 1500 m ir nėra kamuolinių lietaus debesų

METAR: OMAL 260500Z 15008KT CAVOK 36/13 Q1006 NOSIG

Laikas: 09:32 (05:32 UTC)

Prognozė

Ataskaita buvo paskelbta 6 valandos ir 32 minutes, ne 23:00 UTC
Prognozė galioja nuo 26 metu 00 UTC su 27 metu 06 UTC
Vėjas 6 kt iš Rytų/Šiaurės Rytų
Matomumas: 8000 m
Tapsmas
nuo 26 metu 01 UTC su 26 metu 03 UTC
Vėjas 5 kt iš Pietų/Pietryčių
Tapsmas
nuo 26 metu 08 UTC su 26 metu 10 UTC
Vėjas 12 kt iš Šiaurės/Šiaurės Vakarų
Tapsmas
nuo 26 metu 18 UTC su 26 metu 20 UTC
Vėjas 5 kt iš Šiaurės Rytų
Tapsmas
nuo 27 metu 01 UTC su 27 metu 03 UTC
Vėjas 10 kt iš Pietų/Pietryčių

TAF: OMAL 252300Z 2600/2706 06006KT 8000 NSC BECMG 2601/2603 16005KT BECMG 2608/2610 33012KT BECMG 2618/2620 04005KT BECMG 2701/2703 15010KT

Orai ataskaitas ir orų prognozės (METAR, TAF).

turimą stotys yra geltonos ir raudonos taškus žemėlapyje.

Perkelti pele per norėdami pamatyti stoties vardą.

Tada spustelėkite, norėdami matyti oro stebėjimo ir prognozės.

Norėdami pakeisti žemėlapį: spustelėkite ant žalios mygtukų su juodo kryžiaus žemyn,; žalią mygtuką su brūkšneliu, jei norite nutolinti; arba žalių rodyklių gretimoms žemėlapius.


METAR-TAF: